Time;durP1;ratioP1;P1;durP2;ratioP2;P2;SDS_P1;SDS_P2;PMS_P1;PMS_P2;Temp;Humidity;BMP_temperature;BMP_pressure;BME280_temperature;BME280_humidity;BME280_pressure;Samples;Min_cycle;Max_cycle;Signal;HPM_P1;HPM_P2
2021/11/14 00:01:53;;;;;;;57.20;29.50;;;;;;;1.97;66.16;95859.50;5049632;28;20396;-79
2021/11/14 00:04:19;;;;;;;55.38;29.77;;;;;;;2.00;66.32;95858.47;5048654;28;20032;-79
2021/11/14 00:06:44;;;;;;;60.00;31.63;;;;;;;2.04;65.72;95858.13;5049821;28;20025;-78
2021/11/14 00:09:11;;;;;;;61.20;32.70;;;;;;;2.03;66.14;95860.88;5049174;28;20025;-79
2021/11/14 00:11:36;;;;;;;58.40;32.00;;;;;;;1.94;65.57;95852.66;5042926;28;20037;-77
2021/11/14 00:14:02;;;;;;;53.85;29.77;;;;;;;1.92;64.33;95853.75;5028717;28;20029;-80
2021/11/14 00:16:28;;;;;;;54.25;29.15;;;;;;;1.85;63.87;95851.53;5028956;28;20122;-79
2021/11/14 00:18:54;;;;;;;60.30;30.20;;;;;;;1.81;64.73;95855.34;5027369;28;20037;-78
2021/11/14 00:21:20;;;;;;;53.45;29.65;;;;;;;1.82;65.20;95846.47;5044644;28;20029;-78
2021/11/14 00:23:46;;;;;;;49.28;28.30;;;;;;;1.87;65.01;95858.53;5048082;28;20112;-78
2021/11/14 00:26:11;;;;;;;55.28;30.08;;;;;;;1.83;64.95;95850.81;5047618;28;20048;-79
2021/11/14 00:28:39;;;;;;;52.92;28.38;;;;;;;1.90;64.80;95853.00;5048308;28;20503;-78
2021/11/14 00:31:06;;;;;;;56.28;30.30;;;;;;;1.89;67.11;95856.59;5047208;28;20446;-78
2021/11/14 00:33:31;;;;;;;46.72;28.10;;;;;;;1.83;64.95;95853.44;5049974;28;20035;-78
2021/11/14 00:35:57;;;;;;;55.35;28.88;;;;;;;1.80;64.88;95851.03;5018701;28;20033;-77
2021/11/14 00:38:24;;;;;;;55.15;30.00;;;;;;;1.81;64.83;95859.78;5026138;28;20053;-78
2021/11/14 00:40:49;;;;;;;54.75;30.40;;;;;;;1.82;64.76;95857.03;5028713;28;20589;-78
2021/11/14 00:43:15;;;;;;;56.83;29.52;;;;;;;1.83;65.80;95857.88;5028017;28;20143;-78
2021/11/14 00:45:44;;;;;;;55.75;30.08;;;;;;;1.92;66.19;95861.69;5029046;28;20021;-77
2021/11/14 00:48:10;;;;;;;55.60;29.17;;;;;;;1.96;66.15;95865.78;5026895;28;20029;-77
2021/11/14 00:50:38;;;;;;;54.10;30.75;;;;;;;1.89;65.42;95854.78;5028162;28;20552;-80
2021/11/14 00:53:04;;;;;;;60.33;31.70;;;;;;;1.89;66.08;95862.72;5027558;28;20033;-77
2021/11/14 00:55:31;;;;;;;55.28;31.63;;;;;;;1.87;65.20;95858.53;5029714;28;20029;-78
2021/11/14 00:57:57;;;;;;;63.88;34.55;;;;;;;1.91;65.76;95858.19;5028435;28;20025;-78
2021/11/14 01:00:23;;;;;;;62.70;33.63;;;;;;;1.92;66.42;95853.75;5027656;28;20083;-79
2021/11/14 01:02:49;;;;;;;62.33;32.47;;;;;;;1.88;66.30;95849.63;5027380;28;20424;-76
2021/11/14 01:05:15;;;;;;;54.70;30.27;;;;;;;1.72;63.37;95845.47;5026641;28;20032;-76
2021/11/14 01:07:41;;;;;;;55.38;30.38;;;;;;;1.53;64.16;95853.88;5027010;28;20095;-78
2021/11/14 01:10:07;;;;;;;49.70;28.50;;;;;;;1.51;63.37;95858.41;5026521;28;20033;-79
2021/11/14 01:12:33;;;;;;;55.13;29.63;;;;;;;1.52;66.05;95857.47;5027642;28;20060;-78
2021/11/14 01:14:58;;;;;;;62.17;31.98;;;;;;;1.56;67.06;95857.16;5027893;28;20029;-78
2021/11/14 01:17:24;;;;;;;53.78;30.90;;;;;;;1.47;65.64;95850.72;5027638;28;20021;-78
2021/11/14 01:19:49;;;;;;;51.22;29.63;;;;;;;1.42;64.56;95847.53;5028903;28;20052;-78
2021/11/14 01:22:16;;;;;;;49.28;27.58;;;;;;;1.33;64.30;95854.34;5028200;28;20071;-77
2021/11/14 01:24:42;;;;;;;52.65;28.23;;;;;;;1.30;65.64;95844.00;5034655;28;20032;-79
2021/11/14 01:27:08;;;;;;;50.42;28.77;;;;;;;1.27;65.20;95838.94;5046952;28;20020;-78
2021/11/14 01:29:33;;;;;;;48.35;27.95;;;;;;;1.39;67.37;95844.31;5048884;28;20108;-77
2021/11/14 01:31:58;;;;;;;49.58;27.77;;;;;;;1.39;66.99;95845.13;5046118;28;20486;-76
2021/11/14 01:34:24;;;;;;;44.97;27.13;;;;;;;1.47;65.62;95842.78;5045739;28;20545;-78
2021/11/14 01:36:49;;;;;;;50.85;27.40;;;;;;;1.37;65.04;95840.91;5026440;28;20475;-78
2021/11/14 01:39:15;;;;;;;45.50;27.02;;;;;;;1.38;66.57;95842.59;5027153;28;20068;-78
2021/11/14 01:41:40;;;;;;;47.15;28.55;;;;;;;1.33;66.54;95849.06;5025105;28;20022;-77
2021/11/14 01:44:08;;;;;;;50.15;28.00;;;;;;;1.34;66.36;95837.53;5027941;28;20033;-78
2021/11/14 01:46:33;;;;;;;51.58;28.13;;;;;;;1.33;66.72;95850.84;5028426;28;20044;-79
2021/11/14 01:48:59;;;;;;;46.28;27.08;;;;;;;1.36;66.56;95840.06;5025866;28;20029;-77
2021/11/14 01:51:25;;;;;;;45.10;26.95;;;;;;;1.40;66.78;95841.56;5025546;28;20036;-77
2021/11/14 01:53:51;;;;;;;52.47;29.65;;;;;;;1.39;66.47;95833.72;5027027;28;20447;-78
2021/11/14 01:56:16;;;;;;;45.65;26.65;;;;;;;1.40;67.00;95835.41;5043791;28;20037;-79
2021/11/14 01:58:42;;;;;;;49.42;28.63;;;;;;;1.41;66.98;95834.44;5045426;28;20021;-77
2021/11/14 02:01:17;;;;;;;48.22;28.15;;;;;;;1.46;67.48;95840.25;5035192;28;20040;-79
2021/11/14 02:03:45;;;;;;;49.15;28.63;;;;;;;1.50;67.67;95840.88;5028465;28;20064;-76
2021/11/14 02:06:11;;;;;;;46.60;28.48;;;;;;;1.50;67.45;95838.25;5027159;28;20057;-77
2021/11/14 02:08:38;;;;;;;43.53;26.33;;;;;;;1.54;67.22;95829.97;5027816;28;20064;-77
2021/11/14 02:11:03;;;;;;;52.40;29.52;;;;;;;1.53;67.79;95833.56;5026828;28;20026;-77
2021/11/14 02:13:30;;;;;;;50.67;29.00;;;;;;;1.55;68.57;95842.22;5028192;28;20037;-76
2021/11/14 02:15:55;;;;;;;50.80;27.40;;;;;;;1.54;68.22;95835.25;5026751;28;20403;-77
2021/11/14 02:18:21;;;;;;;45.70;27.75;;;;;;;1.52;68.49;95844.25;5027648;28;20116;-77
2021/11/14 02:20:47;;;;;;;50.25;28.33;;;;;;;1.51;68.66;95843.41;5027343;28;20036;-79
2021/11/14 02:23:16;;;;;;;50.78;28.88;;;;;;;1.51;69.45;95843.41;5025892;28;20080;-76
2021/11/14 02:25:41;;;;;;;48.30;28.83;;;;;;;1.52;69.06;95839.81;5025952;28;20021;-77
2021/11/14 02:28:07;;;;;;;53.00;30.75;;;;;;;1.48;69.32;95835.72;5026829;28;20036;-77
2021/11/14 02:30:33;;;;;;;60.08;30.83;;;;;;;1.48;69.41;95835.72;5026794;28;20403;-78
2021/11/14 02:32:59;;;;;;;57.90;28.50;;;;;;;1.48;70.00;95844.47;5025822;28;20956;-78
2021/11/14 02:35:24;;;;;;;55.33;29.05;;;;;;;1.48;69.86;95839.16;5027092;28;20025;-78
2021/11/14 02:37:50;;;;;;;54.85;29.73;;;;;;;1.47;69.57;95834.84;5039409;28;20037;-78
2021/11/14 02:40:16;;;;;;;52.40;29.00;;;;;;;1.54;70.30;95837.91;5029421;28;20025;-77
2021/11/14 02:42:42;;;;;;;56.40;31.25;;;;;;;1.59;70.31;95834.91;5025548;28;20022;-77
2021/11/14 02:45:08;;;;;;;62.20;32.63;;;;;;;1.58;70.97;95834.06;5027262;28;20026;-78
2021/11/14 02:47:34;;;;;;;57.60;30.65;;;;;;;1.56;71.38;95840.44;5027615;28;20512;-77
2021/11/14 02:49:59;;;;;;;60.70;30.58;;;;;;;1.54;71.87;95837.91;5024610;28;20488;-77
2021/11/14 02:52:25;;;;;;;60.83;31.15;;;;;;;1.64;72.18;95835.44;5036529;28;20025;-77
2021/11/14 02:54:50;;;;;;;64.22;32.13;;;;;;;1.66;72.04;95840.63;5044345;28;20033;-78
2021/11/14 02:57:15;;;;;;;64.63;32.20;;;;;;;1.64;72.51;95840.72;5028429;28;20068;-77
2021/11/14 02:59:41;;;;;;;81.88;34.03;;;;;;;1.67;72.90;95848.44;5026366;28;20034;-77
2021/11/14 03:02:06;;;;;;;68.60;33.20;;;;;;;1.69;73.00;95841.22;5025499;28;20496;-77
2021/11/14 03:04:32;;;;;;;66.53;31.02;;;;;;;1.72;73.34;95843.66;5008575;28;20026;-78
2021/11/14 03:06:58;;;;;;;68.45;31.63;;;;;;;1.78;74.20;95845.00;5023702;28;20036;-78
2021/11/14 03:09:24;;;;;;;72.68;32.53;;;;;;;1.80;73.51;95851.03;5024082;28;20495;-78
2021/11/14 03:11:50;;;;;;;60.90;31.23;;;;;;;1.92;73.71;95851.09;5025062;28;20061;-78
2021/11/14 03:14:16;;;;;;;75.22;31.88;;;;;;;1.91;73.94;95852.03;5027467;28;20116;-78
2021/11/14 03:16:42;;;;;;;73.43;33.50;;;;;;;1.81;75.08;95849.22;5035848;28;20511;-77
2021/11/14 03:19:08;;;;;;;68.60;31.23;;;;;;;1.78;75.59;95845.00;5046463;28;20044;-79
2021/11/14 03:21:33;;;;;;;65.85;31.27;;;;;;;1.80;75.51;95840.47;5044830;28;20479;-76
2021/11/14 03:23:59;;;;;;;66.32;31.52;;;;;;;1.83;75.25;95842.03;5044150;28;20415;-78
2021/11/14 03:26:24;;;;;;;62.35;32.17;;;;;;;1.90;75.52;95842.41;5045303;28;20032;-78
2021/11/14 03:28:50;;;;;;;70.78;32.22;;;;;;;1.99;75.01;95847.03;5043896;28;20029;-78
2021/11/14 03:31:15;;;;;;;68.50;31.15;;;;;;;2.07;74.13;95844.66;5046198;28;20033;-78
2021/11/14 03:33:41;;;;;;;68.50;30.67;;;;;;;2.10;74.13;95849.72;5045453;28;20099;-78
2021/11/14 03:36:09;;;;;;;77.20;31.42;;;;;;;2.13;75.11;95847.81;5046598;28;20067;-82
2021/11/14 03:38:40;;;;;;;68.25;30.05;;;;;;;2.10;75.61;95843.56;5035917;28;20042;-79
2021/11/14 03:41:08;;;;;;;71.32;32.13;;;;;;;2.13;75.46;95847.81;5024609;28;20049;-79
2021/11/14 03:43:33;;;;;;;59.60;29.25;;;;;;;2.14;75.41;95850.34;5037222;28;20533;-79
2021/11/14 03:45:59;;;;;;;55.83;26.98;;;;;;;2.17;75.46;95857.19;5033825;28;20029;-78
2021/11/14 03:48:25;;;;;;;61.22;28.40;;;;;;;2.19;75.92;95855.28;5027007;28;20478;-78
2021/11/14 03:50:50;;;;;;;61.58;28.00;;;;;;;2.17;75.70;95859.84;5025301;28;20037;-76
2021/11/14 03:53:16;;;;;;;52.70;25.48;;;;;;;2.26;74.56;95858.34;5042960;28;20042;-78
2021/11/14 03:55:42;;;;;;;60.05;27.50;;;;;;;2.29;74.31;95858.94;5045357;28;20029;-81
2021/11/14 03:58:07;;;;;;;49.67;25.60;;;;;;;2.29;75.68;95850.16;5044453;28;20040;-80
2021/11/14 04:00:39;;;;;;;48.05;24.52;;;;;;;2.29;75.51;95850.97;5008466;28;20033;-79
2021/11/14 04:03:05;;;;;;;49.92;25.38;;;;;;;2.33;75.36;95849.81;5025445;28;20032;-79
2021/11/14 04:05:30;;;;;;;53.80;27.52;;;;;;;2.35;74.91;95850.53;5024985;28;20025;-77
2021/11/14 04:07:57;;;;;;;58.60;28.00;;;;;;;2.41;74.81;95856.31;5023230;28;20069;-79
2021/11/14 04:10:23;;;;;;;49.42;24.38;;;;;;;2.48;74.65;95852.25;5025125;28;20416;-80
2021/11/14 04:12:48;;;;;;;60.05;27.38;;;;;;;2.50;75.07;95852.97;5023286;28;20033;-79
2021/11/14 04:15:15;;;;;;;62.95;29.55;;;;;;;2.54;74.93;95856.22;5025061;28;20029;-79
2021/11/14 04:17:40;;;;;;;58.35;27.08;;;;;;;2.54;75.39;95859.72;5024252;28;20036;-79
2021/11/14 04:20:07;;;;;;;59.00;26.65;;;;;;;2.53;75.16;95860.69;5042874;28;20029;-79
2021/11/14 04:22:33;;;;;;;60.28;27.55;;;;;;;2.54;75.49;95858.88;5044467;28;20037;-79
2021/11/14 04:24:58;;;;;;;64.80;30.10;;;;;;;2.49;76.06;95859.22;5045546;28;20078;-81
2021/11/14 04:27:23;;;;;;;61.33;27.85;;;;;;;2.49;75.72;95867.19;5046127;28;20029;-79
2021/11/14 04:29:49;;;;;;;60.95;27.88;;;;;;;2.52;75.53;95859.00;5043586;28;20033;-78
2021/11/14 04:32:14;;;;;;;61.25;26.85;;;;;;;2.52;75.83;95856.34;5046037;28;20028;-79
2021/11/14 04:34:40;;;;;;;67.22;30.73;;;;;;;2.50;75.64;95858.25;5043577;28;20055;-79
2021/11/14 04:37:07;;;;;;;65.85;29.30;;;;;;;2.59;75.28;95857.59;5045636;28;20522;-80
2021/11/14 04:39:32;;;;;;;63.55;29.17;;;;;;;2.59;75.58;95862.88;5043617;28;20117;-79
2021/11/14 04:41:58;;;;;;;67.57;28.17;;;;;;;2.60;74.92;95847.81;5046553;28;20025;-79
2021/11/14 04:44:24;;;;;;;64.00;30.17;;;;;;;2.55;75.67;95856.13;5049426;28;20025;-79
2021/11/14 04:46:51;;;;;;;67.65;30.42;;;;;;;2.59;75.03;95849.66;5048404;28;20025;-79
2021/11/14 04:49:20;;;;;;;68.50;31.42;;;;;;;2.64;75.09;95851.09;5046903;28;20040;-79
2021/11/14 04:51:46;;;;;;;77.15;30.88;;;;;;;2.68;74.46;95861.31;5046661;28;20029;-78
2021/11/14 04:54:12;;;;;;;68.45;31.25;;;;;;;2.66;74.22;95865.88;5049021;28;20036;-80
2021/11/14 04:56:37;;;;;;;69.20;30.38;;;;;;;2.74;74.31;95873.25;5048364;28;20311;-79
2021/11/14 04:59:02;;;;;;;70.38;30.42;;;;;;;2.76;73.90;95865.22;5049220;28;20404;-80
2021/11/14 05:01:28;;;;;;;72.05;31.08;;;;;;;2.72;74.43;95869.88;5048805;28;20025;-77
2021/11/14 05:03:53;;;;;;;75.35;31.50;;;;;;;2.71;74.55;95874.34;5046855;28;20098;-77
2021/11/14 05:06:20;;;;;;;70.28;30.83;;;;;;;2.65;75.24;95873.94;5049107;28;20025;-78
2021/11/14 05:08:45;;;;;;;72.50;32.35;;;;;;;2.64;75.10;95869.63;5047674;28;20025;-78
2021/11/14 05:11:11;;;;;;;71.75;30.48;;;;;;;2.68;74.54;95873.72;5049233;28;20044;-78
2021/11/14 05:13:36;;;;;;;72.90;31.55;;;;;;;2.64;75.33;95872.28;5047794;28;20041;-79
2021/11/14 05:16:02;;;;;;;69.18;28.90;;;;;;;2.71;75.11;95882.28;5048921;28;20025;-80
2021/11/14 05:18:27;;;;;;;70.70;28.77;;;;;;;2.75;74.92;95884.69;5045232;28;20108;-78
2021/11/14 05:20:52;;;;;;;69.32;29.42;;;;;;;2.77;74.97;95880.97;5048217;28;20044;-81
2021/11/14 05:23:18;;;;;;;68.38;30.83;;;;;;;2.76;75.17;95889.88;5047534;28;20021;-78
2021/11/14 05:25:44;;;;;;;63.78;29.70;;;;;;;2.85;74.70;95888.34;5048341;28;20118;-78
2021/11/14 05:28:09;;;;;;;66.75;27.95;;;;;;;2.84;74.89;95889.28;5048481;28;20025;-78
2021/11/14 05:30:35;;;;;;;78.25;28.95;;;;;;;2.85;75.09;95891.00;5046559;28;20021;-77
2021/11/14 05:33:01;;;;;;;64.50;28.73;;;;;;;2.85;74.94;95891.00;5048676;28;20100;-78
2021/11/14 05:35:26;;;;;;;64.25;26.92;;;;;;;2.92;74.03;95897.50;5047723;28;20068;-79
2021/11/14 05:37:52;;;;;;;57.60;26.98;;;;;;;2.92;74.25;95897.50;5046304;28;20056;-79
2021/11/14 05:40:17;;;;;;;61.03;27.13;;;;;;;2.93;74.16;95906.28;5042442;28;20029;-79
2021/11/14 05:42:43;;;;;;;54.95;26.27;;;;;;;2.95;74.24;95904.38;5047318;28;20551;-79
2021/11/14 05:45:08;;;;;;;60.42;27.70;;;;;;;2.96;74.21;95904.25;5047481;28;20502;-81
2021/11/14 05:47:34;;;;;;;63.53;26.63;;;;;;;3.02;74.08;95905.59;5046964;28;20032;-79
2021/11/14 05:50:03;;;;;;;56.17;24.90;;;;;;;3.03;73.66;95903.78;5043967;28;20048;-78
2021/11/14 05:52:29;;;;;;;58.20;25.42;;;;;;;3.04;74.08;95908.97;5028732;28;20445;-78
2021/11/14 05:54:54;;;;;;;67.05;26.48;;;;;;;3.07;73.71;95914.03;5034152;28;20033;-79
2021/11/14 05:57:20;;;;;;;53.33;25.52;;;;;;;3.04;73.86;95908.97;5030859;28;20056;-76
2021/11/14 05:59:54;;;;;;;54.25;26.48;;;;;;;3.05;73.81;95913.28;5045458;28;20092;-77
2021/11/14 06:05:11;;;;;;;55.85;26.17;;;;;;;3.30;72.22;95927.31;5045484;28;20239;-76
2021/11/14 06:07:37;;;;;;;55.75;26.38;;;;;;;3.28;72.66;95925.72;5043228;28;20020;-77
2021/11/14 06:10:03;;;;;;;55.28;26.15;;;;;;;3.20;72.89;95929.84;5032114;28;20080;-76
2021/11/14 06:12:28;;;;;;;56.00;26.98;;;;;;;3.15;73.25;95923.19;5036687;28;20033;-77
2021/11/14 06:14:54;;;;;;;57.72;27.80;;;;;;;3.08;73.64;95928.97;5030924;28;20024;-77
2021/11/14 06:17:20;;;;;;;58.55;27.95;;;;;;;3.14;73.40;95940.06;5037053;28;20025;-77
2021/11/14 06:19:47;;;;;;;63.60;30.15;;;;;;;3.11;73.96;95935.00;5036780;28;20040;-77
2021/11/14 06:22:13;;;;;;;52.63;26.45;;;;;;;3.20;73.38;95935.13;5035204;28;20055;-78
2021/11/14 06:24:39;;;;;;;56.75;26.65;;;;;;;3.22;73.41;95938.50;5034266;28;20021;-78
2021/11/14 06:27:04;;;;;;;55.50;26.38;;;;;;;3.29;72.94;95941.50;5030890;28;20408;-76
2021/11/14 06:29:30;;;;;;;58.35;26.45;;;;;;;3.26;73.68;95943.53;5025023;28;20025;-77
2021/11/14 06:31:55;;;;;;;55.20;25.88;;;;;;;3.28;73.64;95941.63;5024644;28;20048;-78
2021/11/14 06:34:21;;;;;;;51.47;26.58;;;;;;;3.34;73.30;95947.31;5025580;28;20025;-78
2021/11/14 06:36:46;;;;;;;53.53;25.63;;;;;;;3.43;72.65;95942.25;5026331;28;20021;-77
2021/11/14 06:39:12;;;;;;;53.22;24.83;;;;;;;3.53;72.61;95948.50;5030593;28;20041;-76
2021/11/14 06:41:37;;;;;;;53.38;25.83;;;;;;;3.46;73.06;95942.00;5035903;28;20026;-78
2021/11/14 06:44:03;;;;;;;45.53;23.10;;;;;;;3.51;72.00;95939.00;5037691;28;20474;-76
2021/11/14 06:46:28;;;;;;;38.90;20.80;;;;;;;3.57;71.14;95944.66;5027635;28;20460;-76
2021/11/14 06:48:53;;;;;;;46.40;22.00;;;;;;;3.45;71.71;95941.16;5025156;28;20550;-77
2021/11/14 06:51:19;;;;;;;40.85;21.67;;;;;;;3.43;71.66;95940.44;5025937;28;20401;-77
2021/11/14 06:53:44;;;;;;;37.22;21.40;;;;;;;3.37;72.53;95948.03;5024432;28;20484;-76
2021/11/14 06:56:10;;;;;;;39.80;21.35;;;;;;;3.51;70.43;95949.59;5024071;28;20037;-78
2021/11/14 06:58:35;;;;;;;39.33;20.80;;;;;;;3.50;71.32;95946.09;5026123;28;20034;-78
2021/11/14 07:01:01;;;;;;;42.38;22.55;;;;;;;3.46;71.72;95949.97;5024850;28;20029;-76
2021/11/14 07:03:26;;;;;;;43.75;23.23;;;;;;;3.48;71.57;95945.41;5026651;28;20018;-76
2021/11/14 07:05:51;;;;;;;59.72;28.58;;;;;;;3.28;72.82;95942.50;5024574;28;20079;-77
2021/11/14 07:08:17;;;;;;;59.38;29.83;;;;;;;2.94;74.76;95947.72;5026977;28;20025;-77
2021/11/14 07:10:42;;;;;;;63.47;30.33;;;;;;;2.82;75.20;95946.84;5026288;28;20029;-77
2021/11/14 07:13:08;;;;;;;63.88;29.55;;;;;;;2.79;75.35;95950.56;5025984;28;20552;-78
2021/11/14 07:15:33;;;;;;;60.28;27.67;;;;;;;2.93;74.20;95941.59;5026452;28;20025;-76
2021/11/14 07:17:59;;;;;;;61.92;29.45;;;;;;;3.01;74.69;95941.00;5025696;28;20022;-77
2021/11/14 07:20:26;;;;;;;60.22;29.10;;;;;;;2.96;74.53;95930.75;5026903;28;20029;-78
2021/11/14 07:22:52;;;;;;;63.10;28.17;;;;;;;3.08;73.72;95944.84;5025028;28;20500;-77
2021/11/14 07:25:20;;;;;;;57.53;28.95;;;;;;;3.12;73.98;95939.31;5026843;28;20041;-77
2021/11/14 07:27:48;;;;;;;60.25;28.55;;;;;;;3.24;73.77;95954.28;5025698;28;20403;-76
2021/11/14 07:30:14;;;;;;;64.80;29.55;;;;;;;3.25;73.32;95948.03;5029039;28;20091;-76
2021/11/14 07:32:40;;;;;;;65.95;31.13;;;;;;;3.33;72.80;95950.09;5035397;28;20113;-77
2021/11/14 07:35:08;;;;;;;63.92;31.48;;;;;;;3.30;72.98;95952.97;5033405;28;20036;-76
2021/11/14 07:37:33;;;;;;;67.10;32.33;;;;;;;3.27;73.15;95946.09;5044341;28;20124;-78
2021/11/14 07:39:59;;;;;;;65.97;31.85;;;;;;;3.33;73.05;95939.47;5037459;28;20041;-82
2021/11/14 07:42:24;;;;;;;67.97;30.58;;;;;;;3.32;72.85;95943.91;5038345;28;20033;-82
2021/11/14 07:44:49;;;;;;;64.53;30.42;;;;;;;3.39;72.86;95940.78;5023520;28;20087;-80
2021/11/14 07:47:15;;;;;;;65.30;31.17;;;;;;;3.43;72.42;95947.56;5025247;28;20029;-82
2021/11/14 07:49:40;;;;;;;67.88;30.80;;;;;;;3.50;72.12;95948.75;4991717;28;20027;-83
2021/11/14 07:52:07;;;;;;;61.10;30.48;;;;;;;3.53;71.78;95953.81;5026013;28;20041;-82
2021/11/14 07:54:32;;;;;;;59.35;30.95;;;;;;;3.61;71.77;95955.03;5009124;28;20025;-83
2021/11/14 07:56:57;;;;;;;69.65;31.67;;;;;;;3.64;72.08;95953.00;5024717;28;20027;-84
2021/11/14 07:59:23;;;;;;;61.30;29.85;;;;;;;3.67;70.99;95954.56;5027405;28;20026;-82
2021/11/14 08:01:48;;;;;;;62.28;29.92;;;;;;;3.62;71.75;95946.09;5025499;28;20033;-81
2021/11/14 08:04:14;;;;;;;64.80;30.67;;;;;;;3.60;72.36;95948.88;5026737;28;20522;-82
2021/11/14 08:06:39;;;;;;;62.85;30.35;;;;;;;3.44;73.38;95943.94;5025552;28;20088;-83
2021/11/14 08:09:05;;;;;;;62.22;30.45;;;;;;;3.55;73.45;95946.59;5024981;28;20032;-82
2021/11/14 08:11:30;;;;;;;66.00;31.17;;;;;;;3.65;72.78;95945.84;5025746;28;20624;-82
2021/11/14 08:13:56;;;;;;;70.25;33.08;;;;;;;3.71;72.16;95945.38;5026040;28;20037;-80
2021/11/14 08:16:21;;;;;;;63.60;29.88;;;;;;;3.71;71.85;95945.38;5027961;28;20480;-82
2021/11/14 08:18:46;;;;;;;69.22;30.25;;;;;;;3.74;71.86;95941.66;5028998;28;20022;-82
2021/11/14 08:21:12;;;;;;;66.82;31.98;;;;;;;3.82;70.92;95944.53;5030563;28;20033;-81
2021/11/14 08:23:37;;;;;;;74.53;32.20;;;;;;;3.83;70.74;95944.41;5028664;28;20048;-85
2021/11/14 08:26:03;;;;;;;75.97;31.42;;;;;;;3.97;70.18;95942.44;5029417;28;20022;-82
2021/11/14 08:28:30;;;;;;;70.20;32.47;;;;;;;4.07;70.35;95946.06;5028348;28;20034;-83
2021/11/14 08:30:55;;;;;;;65.55;31.92;;;;;;;4.14;69.94;95943.78;5029991;28;20026;-83
2021/11/14 08:33:21;;;;;;;66.50;31.55;;;;;;;4.12;70.82;95939.53;5029708;28;20075;-84
2021/11/14 08:35:46;;;;;;;56.63;29.42;;;;;;;4.25;70.23;95942.88;5027863;28;20076;-86
2021/11/14 08:38:12;;;;;;;54.28;29.33;;;;;;;4.31;70.24;95946.84;5028594;28;20104;-82
2021/11/14 08:40:37;;;;;;;53.22;26.58;;;;;;;4.37;69.30;95956.13;5027479;28;20056;-83
2021/11/14 08:43:03;;;;;;;49.65;25.73;;;;;;;4.32;69.78;95944.06;5030229;28;20093;-82
2021/11/14 08:45:29;;;;;;;50.60;25.63;;;;;;;4.40;69.62;95938.13;5028598;28;20383;-82
2021/11/14 08:47:55;;;;;;;46.80;25.02;;;;;;;4.48;69.26;95947.28;5029946;28;20525;-81
2021/11/14 08:50:21;;;;;;;53.55;25.98;;;;;;;4.54;68.97;95942.31;5028759;28;20040;-82
2021/11/14 08:52:47;;;;;;;47.05;25.33;;;;;;;4.67;68.86;95946.59;5029287;28;20029;-82
2021/11/14 08:55:17;;;;;;;51.15;24.33;;;;;;;4.69;69.05;95947.34;5029668;28;20075;-82
2021/11/14 08:57:43;;;;;;;49.35;24.90;;;;;;;4.72;68.96;95951.53;5028889;28;20052;-82
2021/11/14 09:00:09;;;;;;;47.17;24.58;;;;;;;4.80;68.73;95947.25;5030055;28;20411;-82
2021/11/14 09:02:35;;;;;;;46.20;25.00;;;;;;;4.77;68.53;95949.34;5010648;28;20033;-82
2021/11/14 09:05:00;;;;;;;42.67;24.13;;;;;;;4.93;68.45;95940.94;5030150;28;20520;-82
2021/11/14 09:07:26;;;;;;;45.85;23.63;;;;;;;4.93;68.40;95947.06;5028616;28;20025;-82
2021/11/14 09:09:51;;;;;;;43.60;22.90;;;;;;;4.96;68.81;95935.34;5028792;28;20033;-82
2021/11/14 09:12:16;;;;;;;39.92;22.25;;;;;;;5.01;67.49;95932.31;5028761;28;20578;-85
2021/11/14 09:14:42;;;;;;;44.17;22.85;;;;;;;5.00;67.64;95926.13;5030954;28;20454;-83
2021/11/14 09:17:07;;;;;;;40.58;22.52;;;;;;;5.14;68.22;95921.47;5047994;28;20043;-84
2021/11/14 09:19:33;;;;;;;40.63;22.27;;;;;;;5.15;66.85;95923.16;5043635;28;20057;-82
2021/11/14 09:21:58;;;;;;;42.67;22.40;;;;;;;5.22;67.06;95926.97;5045940;28;20040;-83
2021/11/14 09:24:24;;;;;;;48.10;23.65;;;;;;;4.92;67.51;95929.44;5036292;28;20033;-84
2021/11/14 09:26:49;;;;;;;43.83;23.20;;;;;;;4.88;68.55;95933.34;5035216;28;20029;-83
2021/11/14 09:29:15;;;;;;;41.35;22.88;;;;;;;4.88;68.44;95933.34;5034421;28;20029;-84
2021/11/14 09:31:40;;;;;;;43.05;24.40;;;;;;;4.95;68.66;95923.00;5022627;28;20369;-84
2021/11/14 09:34:06;;;;;;;44.65;24.27;;;;;;;4.98;68.42;95927.25;5033259;28;20025;-84
2021/11/14 09:36:32;;;;;;;43.75;23.73;;;;;;;4.98;68.35;95930.72;5026822;28;20032;-82
2021/11/14 09:39:03;;;;;;;44.33;25.58;;;;;;;5.02;68.42;95924.19;5028889;28;20574;-84
2021/11/14 09:41:29;;;;;;;52.15;23.23;;;;;;;5.17;67.11;95921.19;5026865;28;20497;-82
2021/11/14 09:43:55;;;;;;;42.25;23.70;;;;;;;5.18;67.75;95917.56;5021697;28;20044;-83
2021/11/14 09:46:20;;;;;;;51.83;25.30;;;;;;;5.26;67.07;95919.56;5025997;28;20029;-83
2021/11/14 09:48:46;;;;;;;52.17;26.83;;;;;;;5.41;66.98;95914.75;5030500;28;20079;-81
2021/11/14 09:51:12;;;;;;;49.97;26.17;;;;;;;5.53;66.64;95907.53;5047139;28;20464;-84
2021/11/14 09:53:37;;;;;;;48.88;26.23;;;;;;;5.56;65.94;95894.78;5045737;28;20040;-82
2021/11/14 09:56:04;;;;;;;50.08;26.33;;;;;;;5.45;66.00;95897.53;5046863;28;20025;-83
2021/11/14 09:58:30;;;;;;;47.85;25.83;;;;;;;5.47;66.13;95897.38;5028762;28;20076;-84
2021/11/14 10:00:57;;;;;;;47.78;25.90;;;;;;;5.50;65.99;95895.31;5046984;28;20044;-83
2021/11/14 10:03:23;;;;;;;50.92;26.98;;;;;;;5.40;65.97;95899.78;5045146;28;20044;-81
2021/11/14 10:05:49;;;;;;;51.80;26.52;;;;;;;5.41;66.02;95896.13;5046158;28;20029;-83
2021/11/14 10:08:14;;;;;;;47.17;25.08;;;;;;;5.64;65.86;95885.28;5047598;28;20056;-83
2021/11/14 10:10:44;;;;;;;48.95;26.58;;;;;;;5.79;64.98;95878.59;5046073;28;20021;-82
2021/11/14 10:13:21;;;;;;;49.95;26.58;;;;;;;5.75;65.74;95884.34;5047901;28;20491;-82
2021/11/14 10:15:49;;;;;;;58.60;29.00;;;;;;;5.79;64.75;95883.06;5045256;28;20037;-83
2021/11/14 10:18:17;;;;;;;54.95;28.80;;;;;;;5.93;64.67;95871.22;5047357;28;20013;-83
2021/11/14 10:20:43;;;;;;;51.10;28.05;;;;;;;6.20;65.18;95867.09;5046175;28;20200;-82
2021/11/14 10:23:13;;;;;;;45.22;27.00;;;;;;;6.43;64.42;95859.66;5048092;28;20025;-82
2021/11/14 10:25:40;;;;;;;50.65;27.00;;;;;;;6.55;64.11;95862.16;5047094;28;20507;-82
2021/11/14 10:28:06;;;;;;;49.20;28.85;;;;;;;6.71;63.01;95853.59;5047209;28;20032;-82
2021/11/14 10:30:35;;;;;;;49.53;26.70;;;;;;;6.83;62.70;95850.78;5046642;28;20021;-82
2021/11/14 10:33:05;;;;;;;51.10;27.88;;;;;;;6.97;62.77;95845.00;5045966;28;20040;-82
2021/11/14 10:35:31;;;;;;;44.75;25.85;;;;;;;7.09;61.53;95847.50;5047919;28;20036;-80
2021/11/14 10:38:02;;;;;;;44.85;25.45;;;;;;;7.10;61.75;95846.50;5045652;28;20049;-81
2021/11/14 10:40:29;;;;;;;47.38;26.90;;;;;;;7.12;61.89;95848.03;5047407;28;20035;-81
2021/11/14 10:43:00;;;;;;;47.35;27.35;;;;;;;7.27;60.69;95844.91;5045602;28;20529;-82
2021/11/14 10:45:26;;;;;;;48.70;26.45;;;;;;;7.39;60.29;95842.88;5044796;28;20029;-82
2021/11/14 10:48:06;;;;;;;48.92;27.60;;;;;;;7.36;60.83;95827.16;5029236;28;20025;-79
2021/11/14 10:50:35;;;;;;;52.67;28.90;;;;;;;7.44;60.95;95829.94;5042965;28;20491;-77
2021/11/14 10:53:05;;;;;;;55.15;30.85;;;;;;;7.47;60.70;95826.97;5045102;28;20503;-79
2021/11/14 10:55:33;;;;;;;54.10;28.60;;;;;;;7.47;60.85;95818.97;5027914;28;20037;-79
2021/11/14 10:57:59;;;;;;;54.28;29.98;;;;;;;7.52;60.06;95822.03;5028256;28;20419;-77
2021/11/14 11:00:27;;;;;;;49.20;27.95;;;;;;;7.62;60.17;95811.31;5046547;28;20021;-80
2021/11/14 11:02:52;;;;;;;52.58;29.75;;;;;;;7.56;60.23;95811.88;5045909;28;20036;-80
2021/11/14 11:05:25;;;;;;;52.58;28.77;;;;;;;7.66;60.16;95811.84;5029201;28;20037;-78
2021/11/14 11:07:55;;;;;;;53.42;28.17;;;;;;;7.68;59.76;95815.22;5045388;28;20029;-77
2021/11/14 11:10:25;;;;;;;47.35;28.25;;;;;;;7.76;60.15;95812.63;5046634;28;20418;-76
2021/11/14 11:12:51;;;;;;;49.05;28.63;;;;;;;7.85;60.02;95804.72;5034047;28;20035;-78
2021/11/14 11:15:16;;;;;;;49.83;28.42;;;;;;;7.99;59.35;95803.34;5027821;28;20033;-84
2021/11/14 11:17:48;;;;;;;51.10;28.33;;;;;;;8.14;59.43;95803.66;5025406;28;20037;-80
2021/11/14 11:20:16;;;;;;;47.15;25.77;;;;;;;8.24;58.49;95798.22;5025327;28;20056;-82
2021/11/14 11:22:57;;;;;;;40.00;24.35;;;;;;;8.27;58.30;95804.09;5028337;28;20102;-76